| time (UTC) | temp F | wind direction | speed MPH | gust MPH | rain 1hr in | rain 24hr in | rain mn in | humidity % | barometer mb |
| 20260503233606 | 48 | 317 | 1.0 | 6.0 | 0.01 | 0.06 | 0.01 | 96 | 978.2 |
| 20260503232706 | 48 | 335 | 0.0 | 3.0 | 0.02 | 0.06 | 0.01 | 94 | 978.3 |
| 20260503231803 | 49 | 316 | 2.0 | 3.0 | 0.02 | 0.06 | 0.01 | 93 | 978.4 |
| 20260503230905 | 49 | 355 | 0.0 | 9.0 | 0.01 | 0.05 | 0.00 | 90 | 978.5 |
| 20260503230007 | 50 | 321 | 4.0 | 12.0 | 0.01 | 0.05 | 0.00 | 88 | 978.5 |
| 20260503225405 | 50 | 323 | 2.0 | 12.0 | 0.01 | 0.05 | 0.05 | 87 | 978.5 |
| 20260503224506 | 50 | 289 | 5.0 | 9.0 | 0.01 | 0.05 | 0.05 | 86 | 978.5 |
| 20260503223605 | 50 | 329 | 2.0 | 11.0 | 0.01 | 0.05 | 0.05 | 88 | 978.5 |
| 20260503222703 | 50 | 315 | 5.0 | 9.0 | 0.01 | 0.04 | 0.04 | 88 | 978.6 |
| 20260503221805 | 50 | 322 | 2.0 | 7.0 | 0.01 | 0.04 | 0.04 | 90 | 978.7 |
| 20260503220903 | 50 | 311 | 2.0 | 9.0 | 0.01 | 0.04 | 0.04 | 89 | 978.7 |
| 20260503220005 | 50 | 316 | 1.0 | 14.0 | 0.01 | 0.04 | 0.04 | 88 | 978.8 |
| 20260503215403 | 50 | 308 | 3.0 | 14.0 | 0.01 | 0.04 | 0.04 | 88 | 978.9 |
| 20260503214505 | 50 | 307 | 2.0 | 8.0 | 0.01 | 0.04 | 0.04 | 90 | 978.7 |
| 20260503213605 | 50 | 316 | 1.0 | 11.0 | 0.01 | 0.04 | 0.04 | 92 | 978.8 |
| 20260503212703 | 49 | 306 | 4.0 | 8.0 | 0.00 | 0.02 | 0.02 | 94 | 978.7 |
| 20260503211803 | 48 | 307 | 2.0 | 7.0 | 0.00 | 0.02 | 0.02 | 95 | 978.5 |
| 20260503210905 | 48 | 324 | 2.0 | 8.0 | 0.00 | 0.02 | 0.02 | 96 | 978.8 |
| 20260503210006 | 48 | 303 | 1.0 | 7.0 | 0.00 | 0.02 | 0.02 | 96 | 978.8 |
| 20260503205404 | 48 | 313 | 2.0 | 7.0 | 0.00 | 0.02 | 0.02 | 96 | 978.9 |
| 20260503204505 | 47 | 302 | 2.0 | 8.0 | 0.00 | 0.02 | 0.02 | 96 | 979.0 |
| 20260503203606 | 47 | 326 | 2.0 | 8.0 | 0.01 | 0.02 | 0.02 | 96 | 979.1 |
| 20260503202706 | 47 | 327 | 2.0 | 10.0 | 0.01 | 0.02 | 0.02 | 96 | 979.1 |
| 20260503201803 | 47 | 318 | 3.0 | 10.0 | 0.01 | 0.02 | 0.02 | 95 | 979.3 |
| 20260503200903 | 47 | 323 | 2.0 | 8.0 | 0.01 | 0.02 | 0.02 | 94 | 979.4 |
| 20260503200006 | 47 | 335 | 4.0 | 9.0 | 0.02 | 0.02 | 0.02 | 94 | 979.6 |
| 20260503195405 | 47 | 324 | 4.0 | 9.0 | 0.02 | 0.02 | 0.02 | 93 | 979.5 |
| 20260503194505 | 47 | 306 | 4.0 | 12.0 | 0.02 | 0.02 | 0.02 | 91 | 979.5 |
| 20260503193605 | 47 | 256 | 3.0 | 11.0 | 0.01 | 0.01 | 0.01 | 88 | 979.8 |
| 20260503192703 | 48 | 267 | 4.0 | 15.0 | 0.01 | 0.01 | 0.01 | 84 | 979.8 |
| 20260503191805 | 49 | 305 | 6.0 | 18.0 | 0.01 | 0.01 | 0.01 | 80 | 979.9 |
| 20260503190905 | 51 | 313 | 10.0 | 21.0 | 0.01 | 0.01 | 0.01 | 71 | 980.0 |
| 20260503190005 | 51 | 284 | 8.0 | 21.0 | 0.00 | 0.00 | 0.00 | 68 | 980.1 |
| 20260503185616 | 51 | 294 | 7.0 | 15.0 | 0.00 | 0.00 | 0.00 | 69 | 980.1 |
| 20260503184504 | 50 | 278 | 2.0 | 5.0 | 0.00 | 0.00 | 0.00 | 73 | 980.3 |
| 20260503183603 | 51 | 316 | 0.0 | 14.0 | 0.00 | 0.00 | 0.00 | 68 | 980.3 |
| 20260503182705 | 52 | 289 | 8.0 | 17.0 | 0.00 | 0.00 | 0.00 | 63 | 980.5 |
| 20260503181806 | 54 | 310 | 2.0 | 15.0 | 0.00 | 0.00 | 0.00 | 50 | 980.6 |
| 20260503180906 | 55 | 339 | 5.0 | 16.0 | 0.00 | 0.00 | 0.00 | 48 | 980.5 |
| 20260503180007 | 55 | 301 | 6.0 | 13.0 | 0.00 | 0.00 | 0.00 | 46 | 980.3 |
| 20260503175406 | 56 | 304 | 2.0 | 10.0 | 0.00 | 0.00 | 0.00 | 46 | 980.3 |
| 20260503174714 | 55 | 293 | 4.0 | 14.0 | 0.00 | 0.00 | 0.00 | 47 | 980.4 |
| 20260503173606 | 55 | 338 | 8.0 | 16.0 | 0.00 | 0.00 | 0.00 | 46 | 980.7 |
| 20260503172703 | 55 | 299 | 2.0 | 11.0 | 0.00 | 0.00 | 0.00 | 47 | 980.5 |
| 20260503171803 | 55 | 353 | 4.0 | 17.0 | 0.00 | 0.00 | 0.00 | 46 | 980.6 |
| 20260503170905 | 56 | 297 | 4.0 | 14.0 | 0.00 | 0.00 | 0.00 | 44 | 980.8 |
| 20260503140218 | 53 | 298 | 6.0 | 12.0 | 0.00 | 0.00 | 0.00 | 41 | 982.9 |
| 20260503130906 | 49 | 317 | 5.0 | 9.0 | 0.00 | 0.00 | 0.00 | 53 | 983.5 |
| 20260503100215 | 32 | 316 | 2.0 | 4.0 | 0.00 | 0.00 | 0.00 | 78 | 984.4 |
| 20260503080903 | 32 | 331 | 0.0 | 4.0 | 0.00 | 0.00 | 0.00 | 72 | 985.0 |
| 20260503072705 | 32 | 300 | 1.0 | 4.0 | 0.00 | 0.00 | 0.00 | 71 | 985.1 |
| 20260503071804 | 32 | 330 | 1.0 | 2.0 | 0.00 | 0.00 | 0.00 | 71 | 985.1 |
| 20260503070904 | 32 | 251 | 0.0 | 3.0 | 0.00 | 0.00 | 0.00 | 70 | 985.2 |
| 20260503054505 | 33 | 319 | 1.0 | 4.0 | 0.00 | 0.00 | 0.00 | 66 | 985.6 |
| 20260503053814 | 33 | 315 | 1.0 | 4.0 | 0.00 | 0.00 | 0.00 | 66 | 985.9 |
| 20260503052705 | 33 | 359 | 0.0 | 4.0 | 0.00 | 0.00 | 0.00 | 66 | 985.9 |
| 20260503051803 | 33 | 336 | 2.0 | 4.0 | 0.00 | 0.00 | 0.00 | 67 | 986.0 |
| 20260503051116 | 33 | 343 | 1.0 | 4.0 | 0.00 | 0.00 | 0.00 | 68 | 986.1 |
| 20260503050003 | 33 | 315 | 2.0 | 2.0 | 0.00 | 0.00 | 0.00 | 68 | 986.2 |
| 20260503045615 | 33 | 323 | 0.0 | 2.0 | 0.00 | 0.00 | 0.00 | 69 | 986.2 |
| 20260503044503 | 32 | 327 | 0.0 | 4.0 | 0.00 | 0.00 | 0.00 | 71 | 986.3 |
| 20260503043606 | 33 | 354 | 2.0 | 5.0 | 0.00 | 0.00 | 0.00 | 71 | 986.4 |
| 20260503042703 | 32 | 359 | 2.0 | 4.0 | 0.00 | 0.00 | 0.00 | 71 | 986.4 |
| 20260503042014 | 32 | 9 | 2.0 | 3.0 | 0.00 | 0.00 | 0.00 | 72 | 986.5 |
| 20260503040903 | 33 | 32 | 1.0 | 2.0 | 0.00 | 0.00 | 0.00 | 72 | 986.5 |
| 20260503040005 | 32 | 360 | 1.0 | 3.0 | 0.00 | 0.00 | 0.00 | 73 | 986.6 |
| 20260503035403 | 32 | 38 | 1.0 | 3.0 | 0.00 | 0.00 | 0.00 | 72 | 986.6 |
| 20260503034504 | 33 | 12 | 1.0 | 3.0 | 0.00 | 0.00 | 0.00 | 71 | 986.6 |
| 20260503033815 | 33 | 327 | 2.0 | 3.0 | 0.00 | 0.00 | 0.00 | 71 | 986.7 |
| 20260503032705 | 32 | 315 | 0.0 | 4.0 | 0.00 | 0.00 | 0.00 | 75 | 986.8 |
| 20260503032015 | 32 | 315 | 0.0 | 2.0 | 0.00 | 0.00 | 0.00 | 75 | 986.8 |
| 20260503030905 | 32 | 333 | 0.0 | 2.0 | 0.00 | 0.00 | 0.00 | 75 | 986.7 |
| 20260503030006 | 32 | 0 | 0.0 | 0.0 | 0.00 | 0.00 | 0.00 | 75 | 986.8 |
| 20260503025403 | 32 | 0 | 0.0 | 0.0 | 0.00 | 0.00 | 0.00 | 75 | 986.8 |
| 20260503024503 | 33 | 0 | 0.0 | 0.0 | 0.00 | 0.00 | 0.00 | 74 | 986.9 |
| 20260503023603 | 33 | 0 | 0.0 | 0.0 | 0.00 | 0.00 | 0.00 | 73 | 987.0 |
| 20260503022919 | 33 | 0 | 0.0 | 0.0 | 0.00 | 0.00 | 0.00 | 72 | 986.9 |
| 20260503021803 | 33 | 0 | 0.0 | 0.0 | 0.00 | 0.00 | 0.00 | 71 | 987.2 |
| 20260503020906 | 34 | 0 | 0.0 | 0.0 | 0.00 | 0.00 | 0.00 | 69 | 987.0 |
| 20260503020006 | 34 | 0 | 0.0 | 0.0 | 0.00 | 0.00 | 0.00 | 68 | 987.0 |
| 20260503015404 | 34 | 0 | 0.0 | 0.0 | 0.00 | 0.00 | 0.00 | 68 | 986.9 |
| 20260503014505 | 35 | 315 | 0.0 | 2.0 | 0.00 | 0.00 | 0.00 | 66 | 986.8 |
| 20260503013605 | 35 | 294 | 1.0 | 2.0 | 0.00 | 0.00 | 0.00 | 63 | 986.9 |
| 20260503012703 | 36 | 12 | 0.0 | 3.0 | 0.00 | 0.00 | 0.00 | 60 | 986.8 |
| 20260503011806 | 37 | 11 | 1.0 | 4.0 | 0.00 | 0.00 | 0.00 | 58 | 986.9 |
| 20260503011119 | 37 | 334 | 1.0 | 4.0 | 0.00 | 0.00 | 0.00 | 56 | 986.8 |
| 20260503010005 | 38 | 322 | 2.0 | 4.0 | 0.00 | 0.00 | 0.00 | 53 | 986.7 |
| 20260503005404 | 38 | 315 | 0.0 | 5.0 | 0.00 | 0.00 | 0.00 | 52 | 986.8 |
| 20260503004503 | 39 | 318 | 2.0 | 8.0 | 0.00 | 0.00 | 0.00 | 50 | 986.7 |
| 20260503003608 | 39 | 312 | 2.0 | 4.0 | 0.00 | 0.00 | 0.00 | 49 | 986.8 |
| 20260503002705 | 40 | 319 | 1.0 | 5.0 | 0.00 | 0.00 | 0.00 | 48 | 986.8 |
| 20260503001804 | 40 | 299 | 2.0 | 7.0 | 0.00 | 0.00 | 0.00 | 46 | 986.8 |
| 20260503001114 | 41 | 331 | 2.0 | 9.0 | 0.00 | 0.00 | 0.00 | 45 | 986.8 |
| 20260503000003 | 41 | 323 | 2.0 | 9.0 | 0.00 | 0.00 | 0.00 | 45 | 986.7 |
| 20260502235403 | 41 | 323 | 4.0 | 12.0 | 0.00 | 0.00 | 0.00 | 45 | 986.7 |
| 20260502234503 | 42 | 330 | 5.0 | 12.0 | 0.00 | 0.00 | 0.00 | 42 | 986.9 |